createdAt,value
2019-05-03T00:00:18.817Z,96.20
2019-05-03T00:03:12.037Z,96.30
2019-05-03T00:06:05.947Z,96.40
2019-05-03T00:08:54.007Z,96.40
2019-05-03T00:11:42.593Z,96.40
2019-05-03T00:14:32.483Z,96.40
2019-05-03T00:17:21.852Z,96.30
2019-05-03T00:20:11.756Z,96.30
2019-05-03T00:23:00.112Z,96.20
2019-05-03T00:25:47.930Z,96.30
2019-05-03T00:28:36.545Z,96.50
2019-05-03T00:31:24.257Z,96.70
2019-05-03T00:34:32.408Z,96.90
2019-05-03T00:37:24.843Z,97.10
2019-05-03T00:40:26.559Z,97.20
2019-05-03T00:43:14.525Z,97.20
2019-05-03T00:46:02.696Z,97.30
2019-05-03T00:48:58.066Z,97.40
2019-05-03T00:51:45.897Z,97.40
2019-05-03T00:54:34.255Z,97.60
2019-05-03T00:57:22.751Z,97.70
2019-05-03T01:00:12.360Z,97.90
2019-05-03T01:03:02.135Z,98.20
2019-05-03T01:06:09.155Z,97.80
2019-05-03T01:08:57.847Z,97.50
2019-05-03T01:11:46.361Z,97.40
2019-05-03T01:14:36.425Z,97.30
2019-05-03T01:17:24.697Z,97.30
2019-05-03T01:20:13.196Z,97.50
2019-05-03T01:23:02.050Z,97.60
2019-05-03T01:25:51.675Z,97.70
2019-05-03T01:28:39.741Z,97.80
2019-05-03T01:31:28.031Z,97.70
2019-05-03T01:34:16.827Z,97.70
2019-05-03T01:37:05.613Z,97.80
2019-05-03T01:39:54.114Z,97.80
2019-05-03T01:42:42.713Z,97.80
2019-05-03T01:45:31.813Z,97.80
2019-05-03T01:48:28.198Z,97.90
2019-05-03T01:51:21.985Z,97.80
2019-05-03T01:54:12.271Z,97.70
2019-05-03T01:57:00.013Z,97.50
2019-05-03T01:59:49.283Z,97.30
2019-05-03T02:02:48.411Z,97.20
2019-05-03T02:05:43.453Z,97.20
2019-05-03T02:08:32.636Z,97.30
2019-05-03T02:11:22.182Z,97.50
2019-05-03T02:14:12.376Z,97.50
2019-05-03T02:17:01.814Z,97.60
2019-05-03T02:19:52.589Z,97.60
2019-05-03T02:22:40.229Z,97.60
2019-05-03T02:25:28.664Z,97.80
2019-05-03T02:28:17.175Z,97.90
2019-05-03T02:31:05.832Z,97.90
2019-05-03T02:33:53.770Z,98.10
2019-05-03T02:36:42.727Z,98.10
2019-05-03T02:39:33.461Z,98.20
2019-05-03T02:42:21.369Z,98.20
2019-05-03T02:45:11.680Z,98.30
2019-05-03T02:48:00.878Z,98.30
2019-05-03T02:50:48.889Z,98.10
2019-05-03T02:53:37.547Z,98.10
2019-05-03T02:56:26.313Z,98.20
2019-05-03T02:59:15.974Z,98.30
2019-05-03T03:02:06.339Z,98.30
2019-05-03T03:04:56.178Z,98.30
2019-05-03T03:07:46.717Z,98.40
2019-05-03T03:10:35.618Z,98.40
2019-05-03T03:13:26.320Z,98.30
2019-05-03T03:16:16.268Z,98.30
2019-05-03T03:19:06.594Z,98.40
2019-05-03T03:21:57.952Z,98.20
2019-05-03T03:24:49.863Z,98.10
2019-05-03T03:27:40.726Z,97.90
2019-05-03T03:30:40.107Z,97.80
2019-05-03T03:33:28.668Z,98.00
2019-05-03T03:36:50.426Z,97.70
2019-05-03T03:39:06.760Z,97.80
2019-05-03T03:41:56.270Z,97.80
2019-05-03T03:44:45.576Z,97.90
2019-05-03T03:47:37.298Z,97.80
2019-05-03T03:50:26.520Z,97.80
2019-05-03T03:53:17.245Z,97.70
2019-05-03T03:56:05.890Z,97.70
2019-05-03T03:58:55.696Z,97.70
2019-05-03T04:01:45.684Z,97.80
2019-05-03T04:04:35.609Z,97.80
2019-05-03T04:07:25.991Z,97.60
2019-05-03T04:10:15.674Z,97.60
2019-05-03T04:13:06.297Z,97.70
2019-05-03T04:15:56.311Z,97.60
2019-05-03T04:18:46.978Z,97.10
2019-05-03T04:21:35.879Z,97.10
2019-05-03T04:24:25.886Z,96.90
2019-05-03T04:27:19.798Z,96.90
2019-05-03T04:30:05.722Z,96.70
2019-05-03T04:32:56.107Z,96.90
2019-05-03T04:35:42.343Z,96.60
2019-05-03T04:38:30.739Z,96.50
2019-05-03T04:41:18.502Z,96.50
2019-05-03T04:44:06.949Z,96.50
2019-05-03T04:46:58.284Z,96.70
2019-05-03T04:49:46.232Z,96.60
2019-05-03T04:52:36.115Z,96.50
2019-05-03T04:55:26.698Z,96.10
2019-05-03T04:58:16.130Z,96.00
2019-05-03T05:01:06.235Z,96.00
2019-05-03T05:03:55.881Z,96.20
2019-05-03T05:06:45.083Z,95.40
2019-05-03T05:09:34.997Z,95.30
2019-05-03T05:12:25.275Z,95.30
2019-05-03T05:15:15.545Z,95.20
2019-05-03T05:18:19.243Z,95.30
2019-05-03T05:21:09.492Z,95.60
2019-05-03T05:23:59.067Z,96.00
2019-05-03T05:26:51.839Z,96.20
2019-05-03T05:29:40.866Z,96.00
2019-05-03T05:32:29.699Z,95.70
2019-05-03T05:35:17.179Z,95.40
2019-05-03T05:38:04.931Z,95.20
2019-05-03T05:40:55.326Z,95.00
2019-05-03T05:43:44.522Z,95.20
2019-05-03T05:46:35.144Z,94.90
2019-05-03T05:49:41.874Z,94.90
2019-05-03T05:52:29.883Z,95.00
2019-05-03T05:55:29.147Z,94.50
2019-05-03T05:58:27.760Z,94.50
2019-05-03T06:01:17.233Z,94.60
2019-05-03T06:04:05.426Z,94.20
2019-05-03T06:06:58.622Z,94.00
2019-05-03T06:09:51.052Z,93.60
2019-05-03T06:12:56.946Z,93.80
2019-05-03T06:16:05.158Z,93.80
2019-05-03T06:18:54.616Z,93.20
2019-05-03T06:21:44.825Z,93.10
2019-05-03T06:24:34.992Z,93.10
2019-05-03T06:27:30.465Z,93.00
2019-05-03T06:30:19.977Z,92.70
2019-05-03T06:33:07.673Z,93.10
2019-05-03T06:35:55.444Z,92.50
2019-05-03T06:38:44.747Z,92.40
2019-05-03T06:41:35.212Z,91.70
2019-05-03T06:44:24.715Z,90.80
2019-05-03T06:47:14.712Z,89.40
2019-05-03T06:50:02.194Z,88.00
2019-05-03T06:52:50.299Z,87.80
2019-05-03T06:55:57.445Z,87.80
2019-05-03T06:58:46.067Z,89.20
2019-05-03T07:01:45.298Z,89.70
2019-05-03T07:04:44.966Z,90.10
2019-05-03T07:07:35.413Z,89.50
2019-05-03T07:10:27.580Z,90.30
2019-05-03T07:13:15.279Z,90.20
2019-05-03T07:16:04.674Z,88.60
2019-05-03T07:18:56.487Z,89.60
2019-05-03T07:21:44.556Z,87.70
2019-05-03T07:24:34.563Z,88.50
2019-05-03T07:27:21.851Z,87.90
2019-05-03T07:30:09.982Z,87.80
2019-05-03T07:33:00.174Z,89.10
2019-05-03T07:35:48.082Z,89.20
2019-05-03T07:38:36.586Z,88.70
2019-05-03T07:41:27.164Z,89.30
2019-05-03T07:44:15.294Z,88.90
2019-05-03T07:47:04.759Z,89.30
2019-05-03T07:49:54.664Z,88.60
2019-05-03T07:52:45.006Z,88.40
2019-05-03T07:55:37.423Z,88.80
2019-05-03T07:58:32.471Z,88.90
2019-05-03T08:01:28.272Z,88.00
2019-05-03T08:04:16.278Z,88.00
2019-05-03T08:07:04.553Z,88.50
2019-05-03T08:09:52.567Z,87.30
2019-05-03T08:12:40.969Z,87.30
2019-05-03T08:15:29.131Z,87.50
2019-05-03T08:18:17.259Z,88.50
2019-05-03T08:21:05.706Z,88.80
2019-05-03T08:23:55.733Z,87.40
2019-05-03T08:26:45.297Z,87.60
2019-05-03T08:29:35.172Z,89.00
2019-05-03T08:32:25.708Z,88.10
2019-05-03T08:35:15.448Z,87.50
2019-05-03T08:38:04.969Z,87.40
2019-05-03T08:40:55.160Z,88.40
2019-05-03T08:43:44.611Z,87.30
2019-05-03T08:46:32.771Z,87.90
2019-05-03T08:49:21.079Z,87.50
2019-05-03T08:52:09.671Z,87.40
2019-05-03T08:54:57.685Z,86.20
2019-05-03T08:57:45.604Z,86.70
2019-05-03T09:00:35.634Z,84.70
2019-05-03T09:03:24.942Z,84.30
2019-05-03T09:06:15.376Z,84.40
2019-05-03T09:09:04.825Z,83.60
2019-05-03T09:11:52.933Z,82.90
2019-05-03T09:14:45.481Z,82.60
2019-05-03T09:17:30.559Z,82.00
2019-05-03T09:20:18.585Z,83.80
2019-05-03T09:23:07.236Z,84.80
2019-05-03T09:25:55.448Z,80.60
2019-05-03T09:28:45.426Z,82.30
2019-05-03T09:31:36.818Z,82.10
2019-05-03T09:34:25.695Z,81.40
2019-05-03T09:37:15.527Z,81.90
2019-05-03T09:40:05.021Z,82.10
2019-05-03T09:42:55.099Z,81.60
2019-05-03T09:45:45.738Z,80.90
2019-05-03T09:48:34.736Z,82.20
2019-05-03T09:51:25.373Z,81.40
2019-05-03T09:54:16.810Z,80.40
2019-05-03T09:57:05.841Z,80.70
2019-05-03T09:59:59.712Z,80.90
2019-05-03T10:02:45.185Z,80.70
2019-05-03T10:05:34.898Z,78.70
2019-05-03T10:08:25.243Z,79.50
2019-05-03T10:11:15.164Z,78.50
2019-05-03T10:14:04.597Z,77.90
2019-05-03T10:17:04.928Z,77.50
2019-05-03T10:19:54.586Z,80.10
2019-05-03T10:22:42.422Z,77.20
2019-05-03T10:25:30.698Z,77.40
2019-05-03T10:28:19.411Z,76.00
2019-05-03T10:31:08.019Z,75.40
2019-05-03T10:33:57.541Z,74.80
2019-05-03T10:36:46.428Z,74.50
2019-05-03T10:39:36.194Z,73.30
2019-05-03T10:42:24.673Z,73.50
2019-05-03T10:45:15.130Z,73.00
2019-05-03T10:48:04.586Z,73.10
2019-05-03T10:50:53.288Z,73.00
2019-05-03T10:53:45.259Z,73.90
2019-05-03T10:56:35.790Z,72.90
2019-05-03T10:59:24.799Z,74.10
2019-05-03T11:02:25.282Z,72.10
2019-05-03T11:05:15.203Z,72.80
2019-05-03T11:08:02.648Z,72.20
2019-05-03T11:10:51.225Z,72.20
2019-05-03T11:13:40.142Z,73.00
2019-05-03T11:16:28.161Z,72.00
2019-05-03T11:19:16.770Z,72.80
2019-05-03T11:22:06.616Z,72.00
2019-05-03T11:24:54.622Z,72.30
2019-05-03T11:27:47.331Z,71.20
2019-05-03T11:30:35.706Z,72.10
2019-05-03T11:33:28.611Z,73.10
2019-05-03T11:36:21.007Z,75.00
2019-05-03T11:39:09.149Z,74.60
2019-05-03T11:41:59.781Z,73.40
2019-05-03T11:44:47.626Z,73.50
2019-05-03T11:47:36.187Z,76.20
2019-05-03T11:50:25.308Z,72.00
2019-05-03T11:53:14.560Z,73.70
2019-05-03T11:56:02.788Z,75.70
2019-05-03T11:58:51.124Z,75.80
2019-05-03T12:01:40.963Z,77.50
2019-05-03T12:04:28.565Z,75.60
2019-05-03T12:07:38.973Z,76.40
2019-05-03T12:10:37.407Z,75.70
2019-05-03T12:13:29.922Z,76.70
2019-05-03T12:16:25.919Z,77.20
2019-05-03T12:19:16.524Z,76.40
2019-05-03T12:21:56.502Z,76.90
2019-05-03T12:24:45.959Z,77.40
2019-05-03T12:27:36.773Z,77.90
2019-05-03T12:30:27.440Z,76.70
2019-05-03T12:33:15.402Z,77.20
2019-05-03T12:36:05.387Z,78.10
2019-05-03T12:38:54.811Z,77.40
2019-05-03T12:41:43.557Z,78.10
2019-05-03T12:44:32.134Z,79.00
2019-05-03T12:47:22.284Z,79.90
2019-05-03T12:50:11.139Z,79.20
2019-05-03T12:52:59.377Z,80.30
2019-05-03T12:55:47.367Z,80.60
2019-05-03T12:58:55.537Z,80.60
2019-05-03T13:02:00.452Z,80.50
2019-05-03T13:04:51.880Z,80.50
2019-05-03T13:07:39.651Z,80.20
2019-05-03T13:10:27.392Z,79.10
2019-05-03T13:13:15.693Z,79.40
2019-05-03T13:16:04.911Z,79.00
2019-05-03T13:18:55.147Z,79.20
2019-05-03T13:21:42.143Z,80.80
2019-05-03T13:24:29.919Z,81.00
2019-05-03T13:27:17.780Z,81.40
2019-05-03T13:30:10.315Z,80.80
2019-05-03T13:32:58.451Z,79.80
2019-05-03T13:35:46.476Z,80.50
2019-05-03T13:38:35.336Z,79.90
2019-05-03T13:41:25.027Z,79.30
2019-05-03T13:44:15.572Z,80.10
2019-05-03T13:47:04.360Z,80.80
2019-05-03T13:49:52.413Z,81.10
2019-05-03T13:52:40.515Z,81.10
2019-05-03T13:55:28.738Z,82.50
2019-05-03T13:58:16.713Z,83.00
2019-05-03T14:01:05.776Z,83.30
2019-05-03T14:03:54.569Z,84.40
2019-05-03T14:06:44.755Z,83.70
2019-05-03T14:09:34.823Z,81.50
2019-05-03T14:12:24.457Z,82.40
2019-05-03T14:15:14.795Z,81.70
2019-05-03T14:18:05.554Z,80.50
2019-05-03T14:20:57.021Z,81.20
2019-05-03T14:24:05.110Z,80.40
2019-05-03T14:26:55.110Z,79.20
2019-05-03T14:29:45.116Z,77.60
2019-05-03T14:32:35.733Z,78.70
2019-05-03T14:35:25.007Z,78.60
2019-05-03T14:38:15.104Z,78.20
2019-05-03T14:41:05.364Z,77.40
2019-05-03T14:43:51.913Z,76.10
2019-05-03T14:46:40.674Z,74.20
2019-05-03T14:49:28.879Z,77.60
2019-05-03T14:52:18.127Z,78.10
2019-05-03T14:55:25.160Z,78.80
2019-05-03T14:58:21.469Z,77.20
2019-05-03T15:01:27.968Z,75.40
2019-05-03T15:04:16.514Z,74.90
2019-05-03T15:07:06.031Z,74.40
2019-05-03T15:09:55.313Z,75.40
2019-05-03T15:12:45.175Z,77.00
2019-05-03T15:15:34.697Z,78.50
2019-05-03T15:18:22.543Z,79.50
2019-05-03T15:21:10.819Z,81.00
2019-05-03T15:23:59.300Z,79.10
2019-05-03T15:26:47.814Z,79.00
2019-05-03T15:29:36.481Z,79.40
2019-05-03T15:32:25.029Z,78.60
2019-05-03T15:35:15.237Z,77.30
2019-05-03T15:38:05.441Z,77.30
2019-05-03T15:40:54.754Z,77.60
2019-05-03T15:43:47.443Z,76.70
2019-05-03T15:46:37.374Z,78.40
2019-05-03T15:49:27.505Z,77.20
2019-05-03T15:52:15.276Z,78.10
2019-05-03T15:55:04.671Z,80.50
2019-05-03T15:57:52.756Z,78.10
2019-05-03T16:00:41.487Z,77.20
2019-05-03T16:03:29.848Z,77.80
2019-05-03T16:06:17.814Z,80.30
2019-05-03T16:09:06.777Z,78.30
2019-05-03T16:11:55.531Z,78.50
2019-05-03T16:14:44.517Z,79.00
2019-05-03T16:17:33.078Z,78.50
2019-05-03T16:20:21.657Z,79.50
2019-05-03T16:23:10.018Z,79.90
2019-05-03T16:25:57.794Z,79.70
2019-05-03T16:28:48.262Z,80.10
2019-05-03T16:31:36.126Z,80.50
2019-05-03T16:34:24.160Z,80.40
2019-05-03T16:37:12.616Z,81.10
2019-05-03T16:40:00.659Z,81.10
2019-05-03T16:42:48.948Z,81.00
2019-05-03T16:45:37.116Z,82.50
2019-05-03T16:48:25.537Z,82.20
2019-05-03T16:51:15.204Z,83.20
2019-05-03T16:54:02.904Z,81.60
2019-05-03T16:56:51.556Z,81.70
2019-05-03T16:59:39.282Z,83.10
2019-05-03T17:02:27.096Z,81.60
2019-05-03T17:05:19.067Z,81.10
2019-05-03T17:08:25.168Z,82.00
2019-05-03T17:11:21.124Z,81.80
2019-05-03T17:14:09.047Z,80.00
2019-05-03T17:16:57.454Z,80.10
2019-05-03T17:19:47.370Z,80.40
2019-05-03T17:22:35.221Z,81.50
2019-05-03T17:25:24.551Z,82.90
2019-05-03T17:28:12.779Z,82.80
2019-05-03T17:31:00.615Z,82.80
2019-05-03T17:33:53.236Z,84.10
2019-05-03T17:36:38.885Z,84.10
2019-05-03T17:39:45.514Z,84.50
2019-05-03T17:42:45.194Z,84.70
2019-05-03T17:45:37.898Z,87.80
2019-05-03T17:48:25.112Z,89.50
2019-05-03T17:51:15.377Z,90.40
2019-05-03T17:54:05.187Z,90.90
2019-05-03T17:56:55.139Z,91.30
2019-05-03T17:59:54.870Z,91.70
2019-05-03T18:02:45.118Z,91.90
2019-05-03T18:05:44.921Z,92.30
2019-05-03T18:08:35.521Z,92.50
2019-05-03T18:11:27.673Z,92.00
2019-05-03T18:14:15.571Z,92.00
2019-05-03T18:17:05.707Z,92.20
2019-05-03T18:19:55.362Z,92.20
2019-05-03T18:22:43.966Z,92.10
2019-05-03T18:25:31.722Z,92.30
2019-05-03T18:28:19.640Z,92.50
2019-05-03T18:31:08.865Z,92.60
2019-05-03T18:33:56.831Z,92.50
2019-05-03T18:36:45.166Z,92.80
2019-05-03T18:39:34.680Z,92.70
2019-05-03T18:42:30.531Z,92.80
2019-05-03T18:45:28.135Z,92.80
2019-05-03T18:48:16.464Z,92.70
2019-05-03T18:51:05.463Z,92.80
2019-05-03T18:53:54.440Z,92.80
2019-05-03T18:56:43.083Z,92.90
2019-05-03T18:59:31.344Z,92.90
2019-05-03T19:02:19.162Z,93.00
2019-05-03T19:05:08.896Z,93.10
2019-05-03T19:08:17.546Z,93.30
2019-05-03T19:11:07.057Z,93.40
2019-05-03T19:13:57.036Z,93.40
2019-05-03T19:16:46.280Z,93.60
2019-05-03T19:19:44.536Z,93.90
2019-05-03T19:22:31.867Z,94.10
2019-05-03T19:25:20.234Z,94.70
2019-05-03T19:28:08.943Z,95.20
2019-05-03T19:30:56.787Z,95.80
2019-05-03T19:33:45.640Z,95.70
2019-05-03T19:36:34.844Z,96.60
2019-05-03T19:39:25.084Z,96.70
2019-05-03T19:42:12.412Z,96.60
2019-05-03T19:45:01.104Z,97.10
2019-05-03T19:47:48.842Z,96.90
2019-05-03T19:50:37.132Z,97.10
2019-05-03T19:53:44.278Z,97.30
2019-05-03T19:56:32.737Z,97.20
2019-05-03T19:59:39.184Z,96.90
2019-05-03T20:02:41.093Z,97.00
2019-05-03T20:05:44.803Z,97.40
2019-05-03T20:08:35.201Z,97.10
2019-05-03T20:11:25.153Z,97.10
2019-05-03T20:14:14.877Z,97.20
2019-05-03T20:17:04.729Z,97.60
2019-05-03T20:19:54.357Z,98.20
2019-05-03T20:22:42.115Z,98.60
2019-05-03T20:25:30.811Z,98.70
2019-05-03T20:28:19.199Z,99.30
2019-05-03T20:31:07.841Z,99.30
2019-05-03T20:33:55.534Z,99.90
2019-05-03T20:36:45.382Z,99.90
2019-05-03T20:39:34.829Z,99.90
2019-05-03T20:42:35.704Z,99.90
2019-05-03T20:45:37.225Z,99.90
2019-05-03T20:48:25.175Z,99.90
2019-05-03T20:51:14.901Z,99.70
2019-05-03T20:54:04.899Z,99.80
2019-05-03T20:56:52.232Z,99.80
2019-05-03T20:59:45.160Z,99.70
2019-05-03T21:02:30.346Z,99.90
2019-05-03T21:05:29.583Z,99.90
2019-05-03T21:08:08.882Z,99.60
2019-05-03T21:11:16.574Z,99.80
2019-05-03T21:14:05.251Z,99.90
2019-05-03T21:17:11.283Z,99.80
2019-05-03T21:20:00.934Z,99.90
2019-05-03T21:22:48.656Z,99.90
2019-05-03T21:26:02.163Z,99.90
2019-05-03T21:28:27.844Z,99.90
2019-05-03T21:31:15.727Z,99.90
2019-05-03T21:34:05.634Z,99.90
2019-05-03T21:36:54.475Z,99.90
2019-05-03T21:39:45.301Z,99.90
2019-05-03T21:42:34.939Z,99.90
2019-05-03T21:45:24.671Z,99.90
2019-05-03T21:48:14.645Z,99.90
2019-05-03T21:51:04.380Z,99.90
2019-05-03T21:53:51.894Z,99.90
2019-05-03T21:56:40.248Z,99.90
2019-05-03T21:59:28.628Z,99.90
2019-05-03T22:02:16.784Z,99.90
2019-05-03T22:05:05.394Z,99.90
2019-05-03T22:07:55.044Z,99.90
2019-05-03T22:10:44.996Z,99.90
2019-05-03T22:13:32.689Z,99.90
2019-05-03T22:16:22.143Z,99.90
2019-05-03T22:19:09.850Z,99.90
2019-05-03T22:22:16.565Z,99.90
2019-05-03T22:25:08.201Z,99.90
2019-05-03T22:27:56.037Z,99.90
2019-05-03T22:30:45.346Z,99.90
2019-05-03T22:33:33.986Z,99.90
2019-05-03T22:36:21.790Z,99.90
2019-05-03T22:39:10.421Z,99.90
2019-05-03T22:41:58.525Z,99.90
2019-05-03T22:44:46.557Z,99.90
2019-05-03T22:47:35.782Z,99.90
2019-05-03T22:50:25.405Z,99.90
2019-05-03T22:53:14.772Z,99.90
2019-05-03T22:56:04.904Z,99.90
2019-05-03T22:58:54.810Z,99.90
2019-05-03T23:01:45.536Z,99.90
2019-05-03T23:04:52.616Z,99.90
2019-05-03T23:07:40.938Z,99.90
2019-05-03T23:10:28.947Z,99.90
2019-05-03T23:13:17.645Z,99.90
2019-05-03T23:16:05.775Z,99.90
2019-05-03T23:18:54.781Z,99.90
2019-05-03T23:21:47.371Z,99.90
2019-05-03T23:24:35.807Z,99.90
2019-05-03T23:27:24.970Z,99.90
2019-05-03T23:30:15.321Z,99.90
2019-05-03T23:33:02.704Z,99.90
2019-05-03T23:35:51.082Z,99.90
2019-05-03T23:38:39.200Z,99.90
2019-05-03T23:41:27.437Z,99.90
2019-05-03T23:44:15.290Z,99.90
2019-05-03T23:47:05.420Z,99.90
2019-05-03T23:50:14.384Z,99.90
2019-05-03T23:53:02.215Z,99.90
2019-05-03T23:56:08.408Z,99.90
2019-05-03T23:58:56.278Z,99.90
